Time;durP1;ratioP1;P1;durP2;ratioP2;P2;SDS_P1;SDS_P2;PMS_P1;PMS_P2;Temp;Humidity;BMP_temperature;BMP_pressure;BME280_temperature;BME280_humidity;BME280_pressure;Samples;Min_cycle;Max_cycle;Signal;HPM_P1;HPM_P2
2023/08/18 00:02:22;;;;;;;124.90;119.28;;;;;;;25.56;45.04;101647.44;5046383;28;20466;-73
2023/08/18 00:04:47;;;;;;;124.32;118.78;;;;;;;25.55;45.09;101646.63;5044949;28;20059;-74
2023/08/18 00:07:13;;;;;;;120.22;114.90;;;;;;;25.53;45.00;101635.06;5040088;28;20444;-73
2023/08/18 00:09:38;;;;;;;129.00;122.80;;;;;;;25.54;44.85;101633.09;5049484;28;20033;-73
2023/08/18 00:12:05;;;;;;;127.82;122.03;;;;;;;25.53;45.29;101637.00;5039924;28;20045;-74
2023/08/18 00:14:31;;;;;;;128.88;123.07;;;;;;;25.52;45.06;101633.41;5042886;28;20041;-74
2023/08/18 00:16:56;;;;;;;126.45;120.85;;;;;;;25.51;45.19;101639.28;5043200;28;20037;-74
2023/08/18 00:19:22;;;;;;;128.93;123.03;;;;;;;25.52;45.29;101632.59;5050862;28;20539;-74
2023/08/18 00:21:47;;;;;;;128.60;122.90;;;;;;;25.51;44.93;101631.81;5049223;28;20481;-75
2023/08/18 00:24:13;;;;;;;126.63;120.78;;;;;;;25.50;45.14;101623.81;5042652;28;20514;-74
2023/08/18 00:26:38;;;;;;;121.72;116.22;;;;;;;25.48;45.09;101627.72;5044689;28;20152;-74
2023/08/18 00:29:03;;;;;;;127.07;120.97;;;;;;;25.46;45.15;101616.16;5043910;28;20496;-72
2023/08/18 00:31:29;;;;;;;123.22;117.80;;;;;;;25.47;45.03;101609.50;5042379;28;20038;-73
2023/08/18 00:33:54;;;;;;;126.85;121.05;;;;;;;25.46;45.14;101610.63;5047815;28;20029;-74
2023/08/18 00:36:20;;;;;;;127.32;121.72;;;;;;;25.44;45.18;101610.13;5038396;28;20046;-72
2023/08/18 00:38:45;;;;;;;124.05;118.53;;;;;;;25.45;45.35;101614.56;5044141;28;20060;-74
2023/08/18 00:41:11;;;;;;;123.03;117.40;;;;;;;25.44;45.29;101614.88;5043636;28;20029;-75
2023/08/18 00:43:37;;;;;;;125.40;119.80;;;;;;;25.44;45.06;101614.88;5040555;28;20044;-73
2023/08/18 00:46:03;;;;;;;127.88;121.82;;;;;;;25.42;45.03;101612.41;5045950;28;20466;-73
2023/08/18 00:48:28;;;;;;;123.65;118.20;;;;;;;25.42;45.03;101611.59;5042746;28;20365;-73
2023/08/18 00:50:55;;;;;;;126.38;120.50;;;;;;;25.41;45.20;101615.50;5041070;28;20445;-73
2023/08/18 00:53:21;;;;;;;124.00;118.40;;;;;;;25.41;45.26;101616.31;5049246;28;20516;-73
2023/08/18 00:55:48;;;;;;;124.80;119.10;;;;;;;25.41;45.29;101613.56;5043743;28;20068;-73
2023/08/18 00:58:14;;;;;;;123.53;117.93;;;;;;;25.40;45.08;101624.94;5045955;28;20029;-73
2023/08/18 01:00:40;;;;;;;123.72;118.32;;;;;;;25.40;45.24;101625.78;5048870;28;20048;-74
2023/08/18 01:03:06;;;;;;;123.28;117.82;;;;;;;25.40;45.26;101627.69;5042713;28;20030;-74
2023/08/18 01:05:32;;;;;;;121.80;116.40;;;;;;;25.38;45.33;101619.75;5039313;28;20051;-74
2023/08/18 01:07:58;;;;;;;125.18;119.47;;;;;;;25.38;45.07;101621.69;5038656;28;20038;-74
2023/08/18 01:10:25;;;;;;;122.80;116.97;;;;;;;25.37;45.34;101608.97;5042760;28;20060;-73
2023/08/18 01:13:29;;;;;;;124.22;118.63;;;;;;;25.36;45.15;101618.44;5037542;28;20022;-74
2023/08/18 01:15:59;;;;;;;122.60;117.10;;;;;;;25.35;45.48;101614.03;5032675;28;20041;-73
2023/08/18 01:18:26;;;;;;;125.13;119.30;;;;;;;25.34;45.26;101615.97;5041880;28;20083;-73
2023/08/18 01:20:54;;;;;;;124.47;118.88;;;;;;;25.33;45.61;101613.56;5048624;28;20439;-73
2023/08/18 01:23:19;;;;;;;;;;;;;;;25.28;45.47;101608.16;5044627;28;20077;-73
2023/08/18 01:25:45;;;;;;;118.47;113.13;;;;;;;25.29;45.22;101607.84;5037201;28;19921;-73
2023/08/18 01:28:10;;;;;;;123.03;117.43;;;;;;;25.28;45.13;101622.81;5044728;28;20585;-74
2023/08/18 01:30:45;;;;;;;121.25;115.93;;;;;;;25.29;45.63;101618.91;5043987;28;20044;-72
2023/08/18 01:33:23;;;;;;;122.50;117.00;;;;;;;25.27;45.51;101621.16;5043093;28;20039;-73
2023/08/18 01:35:50;;;;;;;124.00;118.30;;;;;;;25.27;45.36;101615.63;5037333;28;20084;-72
2023/08/18 01:38:19;;;;;;;126.20;120.53;;;;;;;25.26;45.40;101619.53;5037557;28;20040;-77
2023/08/18 01:40:46;;;;;;;123.68;117.88;;;;;;;25.26;45.32;101611.25;5031003;28;20059;-73
2023/08/18 01:43:12;;;;;;;123.78;118.28;;;;;;;25.25;45.27;101610.44;5045704;28;20513;-73
2023/08/18 01:45:37;;;;;;;124.60;119.00;;;;;;;25.24;45.41;101605.22;5036556;28;20038;-72
2023/08/18 01:48:03;;;;;;;122.35;116.75;;;;;;;25.25;45.38;101604.09;5040750;28;20037;-73
2023/08/18 01:50:28;;;;;;;122.35;116.75;;;;;;;25.24;45.32;101594.97;5018350;28;20034;-73
2023/08/18 01:52:53;;;;;;;121.60;116.20;;;;;;;25.23;45.26;101596.13;5045839;28;20044;-74
2023/08/18 01:55:19;;;;;;;122.22;116.75;;;;;;;25.22;45.35;101586.19;5040838;28;20128;-73
2023/08/18 01:57:44;;;;;;;121.85;116.22;;;;;;;25.22;45.22;101591.72;5044128;28;20037;-74
2023/08/18 02:00:10;;;;;;;121.07;115.78;;;;;;;25.21;45.10;101587.31;5036822;28;20064;-72
2023/08/18 02:02:35;;;;;;;122.03;116.63;;;;;;;25.21;45.67;101589.28;5042757;28;20072;-73
2023/08/18 02:05:01;;;;;;;125.05;119.57;;;;;;;25.20;45.10;101579.34;5044457;28;20037;-73
2023/08/18 02:07:27;;;;;;;120.30;115.00;;;;;;;25.20;45.37;101579.34;5045250;28;20044;-73
2023/08/18 02:09:52;;;;;;;120.72;115.38;;;;;;;25.18;45.07;101585.22;5040390;28;20037;-74
2023/08/18 02:12:18;;;;;;;124.85;119.05;;;;;;;25.18;45.22;101590.72;5044046;28;20060;-73
2023/08/18 02:14:43;;;;;;;123.97;118.32;;;;;;;25.17;45.38;101585.50;5046501;28;20132;-74
2023/08/18 02:17:08;;;;;;;119.88;114.47;;;;;;;25.17;45.51;101575.25;5039447;28;20087;-73
2023/08/18 02:19:34;;;;;;;121.60;116.20;;;;;;;25.17;45.47;101585.50;5039003;28;20786;-73
2023/08/18 02:21:59;;;;;;;121.50;116.10;;;;;;;25.16;45.42;101584.72;5043064;28;20051;-74
2023/08/18 02:24:25;;;;;;;121.25;115.78;;;;;;;25.15;45.13;101588.59;5036140;28;20529;-74
2023/08/18 02:26:50;;;;;;;120.35;114.75;;;;;;;25.14;45.37;101578.66;5039866;28;20033;-73
2023/08/18 02:29:15;;;;;;;121.10;115.68;;;;;;;25.14;45.49;101575.88;5044085;28;20481;-73
2023/08/18 02:31:41;;;;;;;121.25;116.00;;;;;;;25.14;45.38;101580.59;5033489;28;20037;-74
2023/08/18 02:34:07;;;;;;;121.90;116.45;;;;;;;25.13;45.34;101570.69;5025455;28;20389;-73
2023/08/18 02:36:33;;;;;;;120.75;115.47;;;;;;;25.11;45.39;101571.00;5037811;28;20113;-73
2023/08/18 02:38:58;;;;;;;123.53;118.10;;;;;;;25.11;45.60;101564.66;5043696;28;20033;-73
2023/08/18 02:41:24;;;;;;;121.30;115.63;;;;;;;25.10;45.20;101565.78;5042933;28;20033;-74
2023/08/18 02:43:49;;;;;;;122.13;116.63;;;;;;;25.09;45.59;101564.16;5036937;28;20041;-75
2023/08/18 02:46:15;;;;;;;122.13;116.72;;;;;;;25.08;45.46;101557.03;5045335;28;20043;-72
2023/08/18 02:48:40;;;;;;;121.90;116.50;;;;;;;25.08;45.40;101562.56;5039857;28;20033;-74
2023/08/18 02:51:09;;;;;;;123.15;117.68;;;;;;;25.07;45.53;101558.94;5043565;28;20116;-74
2023/08/18 02:53:39;;;;;;;120.93;115.68;;;;;;;25.05;45.20;101559.28;5037753;28;20125;-74
2023/08/18 02:56:05;;;;;;;123.63;118.15;;;;;;;25.05;45.60;101562.06;5043831;28;20037;-74
2023/08/18 02:58:33;;;;;;;121.13;115.88;;;;;;;25.04;45.63;101557.63;5043426;28;20091;-72
2023/08/18 03:01:05;;;;;;;118.83;113.67;;;;;;;25.03;45.19;101560.75;5034955;28;20038;-73
2023/08/18 03:03:30;;;;;;;118.88;113.75;;;;;;;25.03;45.11;101556.03;5033429;28;20326;-73
2023/08/18 03:06:05;;;;;;;119.38;114.07;;;;;;;25.00;45.20;101559.44;5044716;28;20065;-74
2023/08/18 03:08:32;;;;;;;122.10;116.72;;;;;;;25.00;45.38;101558.63;5036369;28;20516;-73
2023/08/18 03:10:59;;;;;;;120.13;114.78;;;;;;;24.99;45.27;101551.44;5043239;28;20051;-74
2023/08/18 03:13:25;;;;;;;120.97;115.68;;;;;;;24.98;45.39;101558.94;5044575;28;20496;-74
2023/08/18 03:15:50;;;;;;;124.03;118.57;;;;;;;24.98;45.60;101555.38;5047310;28;20036;-74
2023/08/18 03:18:16;;;;;;;122.90;117.32;;;;;;;24.98;45.21;101558.94;5047652;28;20072;-72
2023/08/18 03:20:41;;;;;;;119.72;114.32;;;;;;;24.97;45.43;101559.25;5041449;28;20045;-76
2023/08/18 03:23:07;;;;;;;118.78;113.53;;;;;;;24.97;45.38;101562.00;5044036;28;20057;-75
2023/08/18 03:25:33;;;;;;;122.35;116.68;;;;;;;24.95;45.53;101559.59;5041277;28;20037;-74
2023/08/18 03:27:58;;;;;;;117.05;111.85;;;;;;;24.95;45.47;101562.34;5042895;28;20037;-73
2023/08/18 03:30:23;;;;;;;121.30;115.80;;;;;;;24.95;45.47;101561.53;5042355;28;20037;-73
2023/08/18 03:32:50;;;;;;;120.50;114.97;;;;;;;24.94;45.33;101557.13;5045227;28;20060;-73
2023/08/18 03:35:16;;;;;;;120.45;115.05;;;;;;;24.92;45.56;101563.00;5042358;28;20120;-73
2023/08/18 03:37:41;;;;;;;119.85;114.60;;;;;;;24.93;45.48;101552.75;5050200;28;20131;-72
2023/08/18 03:40:07;;;;;;;119.72;114.45;;;;;;;24.92;45.36;101560.22;5039317;28;20497;-75
2023/08/18 03:42:33;;;;;;;120.97;115.38;;;;;;;24.92;45.21;101559.41;5047414;28;20041;-73
2023/08/18 03:44:59;;;;;;;120.55;115.25;;;;;;;24.90;45.33;101548.69;5048508;28;20033;-74
2023/08/18 03:47:25;;;;;;;121.05;115.65;;;;;;;24.89;45.40;101549.78;5047191;28;20477;-73
2023/08/18 03:49:50;;;;;;;120.60;115.20;;;;;;;24.88;45.26;101553.72;5042500;28;20037;-72
2023/08/18 03:52:16;;;;;;;122.20;116.55;;;;;;;24.87;45.32;101546.53;5042280;28;20701;-73
2023/08/18 03:54:41;;;;;;;120.53;115.18;;;;;;;24.86;45.66;101547.69;5050501;28;20041;-73
2023/08/18 03:57:07;;;;;;;121.75;116.05;;;;;;;24.86;45.40;101538.56;5045000;28;20512;-73
2023/08/18 03:59:32;;;;;;;120.47;115.13;;;;;;;24.86;45.18;101538.56;5038460;28;20037;-73
2023/08/18 04:01:58;;;;;;;118.28;113.15;;;;;;;24.83;45.41;101532.56;5044987;28;20436;-72
2023/08/18 04:04:23;;;;;;;121.95;116.50;;;;;;;24.84;45.17;101544.41;5047929;28;20033;-74
2023/08/18 04:06:49;;;;;;;118.22;112.80;;;;;;;24.83;45.61;101546.38;5046733;28;20052;-73
2023/08/18 04:09:16;;;;;;;120.18;114.88;;;;;;;24.82;45.66;101544.75;5042813;28;20112;-73
2023/08/18 04:11:43;;;;;;;125.13;119.53;;;;;;;24.81;45.30;101545.06;5041057;28;20489;-72
2023/08/18 04:14:09;;;;;;;126.47;120.68;;;;;;;24.79;45.49;101542.59;5038530;28;20040;-74
2023/08/18 04:16:34;;;;;;;122.55;117.05;;;;;;;24.80;45.37;101546.22;5039137;28;20033;-73
2023/08/18 04:19:03;;;;;;;118.43;113.03;;;;;;;24.79;45.74;101545.38;5043438;28;20061;-73
2023/08/18 04:21:29;;;;;;;116.65;111.43;;;;;;;24.77;45.51;101539.38;5040648;28;20089;-72
2023/08/18 04:23:55;;;;;;;118.00;112.85;;;;;;;24.77;45.56;101541.28;5049204;28;20381;-73
2023/08/18 04:26:20;;;;;;;115.88;110.60;;;;;;;24.76;45.76;101536.91;5043376;28;20033;-73
2023/08/18 04:28:46;;;;;;;119.07;113.85;;;;;;;24.74;45.60;101537.22;5046795;28;20112;-73
2023/08/18 04:31:12;;;;;;;119.50;114.28;;;;;;;24.73;45.34;101546.66;5040829;28;20037;-73
2023/08/18 04:33:38;;;;;;;117.70;112.45;;;;;;;24.74;45.38;101553.81;5043820;28;20037;-72
2023/08/18 04:36:04;;;;;;;119.18;113.78;;;;;;;24.73;45.51;101549.44;5043915;28;20437;-71
2023/08/18 04:38:30;;;;;;;117.57;112.35;;;;;;;24.72;45.74;101556.09;5048482;28;20033;-73
2023/08/18 04:41:00;;;;;;;117.93;112.65;;;;;;;24.72;45.28;101558.84;5041467;28;20032;-77
2023/08/18 04:43:30;;;;;;;119.95;114.47;;;;;;;24.71;45.72;101548.91;5045820;28;20362;-73
2023/08/18 04:45:56;;;;;;;119.00;113.78;;;;;;;24.71;45.27;101550.88;5037370;28;20036;-72
2023/08/18 04:48:22;;;;;;;118.20;112.90;;;;;;;24.69;45.33;101545.66;5044041;28;20033;-74
2023/08/18 04:50:48;;;;;;;118.50;112.90;;;;;;;24.69;45.29;101544.84;5037451;28;20052;-75
2023/08/18 04:53:14;;;;;;;115.68;110.30;;;;;;;24.67;45.62;101542.44;5045479;28;20029;-74
2023/08/18 04:55:41;;;;;;;120.57;115.18;;;;;;;24.67;45.61;101547.94;5037712;28;20041;-73
2023/08/18 04:58:09;;;;;;;122.32;116.63;;;;;;;24.66;45.58;101537.22;5039790;28;20048;-73
2023/08/18 05:00:35;;;;;;;118.20;112.90;;;;;;;24.65;45.65;101541.91;5042242;28;20230;-74
2023/08/18 05:03:00;;;;;;;117.75;112.43;;;;;;;24.65;45.44;101538.34;5040136;28;20029;-73
2023/08/18 05:05:25;;;;;;;118.75;113.35;;;;;;;24.63;45.35;101546.13;5040917;28;20527;-73
2023/08/18 05:07:51;;;;;;;115.97;110.82;;;;;;;24.63;45.75;101546.13;5040490;28;20037;-73
2023/08/18 05:10:16;;;;;;;119.45;114.05;;;;;;;24.61;45.43;101544.50;5042394;28;20416;-74
2023/08/18 05:12:42;;;;;;;118.65;113.25;;;;;;;24.60;45.81;101545.63;5040578;28;20044;-76
2023/08/18 05:15:07;;;;;;;117.43;112.15;;;;;;;24.61;45.27;101538.16;5045727;28;20095;-72
2023/08/18 05:17:33;;;;;;;114.22;109.20;;;;;;;24.61;45.79;101538.16;5041505;28;20128;-72
2023/08/18 05:19:59;;;;;;;117.45;112.28;;;;;;;24.59;45.71;101535.72;5047335;28;20068;-73
2023/08/18 05:22:24;;;;;;;117.65;112.35;;;;;;;24.59;45.56;101534.91;5040228;28;20029;-74
2023/08/18 05:24:50;;;;;;;119.18;113.88;;;;;;;24.58;45.56;101536.84;5046258;28;20390;-73
2023/08/18 05:27:16;;;;;;;116.18;110.82;;;;;;;24.57;45.64;101540.75;5045350;28;20037;-74
2023/08/18 05:29:42;;;;;;;117.80;112.30;;;;;;;24.56;45.45;101552.91;5039005;28;20036;-73
2023/08/18 05:32:07;;;;;;;119.22;113.78;;;;;;;24.56;45.83;101544.63;5044189;28;20037;-75
2023/08/18 05:34:33;;;;;;;117.38;111.72;;;;;;;24.55;45.52;101543.00;5042504;28;20052;-73
2023/08/18 05:36:58;;;;;;;118.10;112.50;;;;;;;24.54;45.71;101532.28;5041733;28;20502;-73
2023/08/18 05:39:23;;;;;;;117.38;111.97;;;;;;;24.53;45.59;101544.47;5043431;28;20064;-74
2023/08/18 05:41:49;;;;;;;115.13;110.05;;;;;;;24.53;45.82;101544.47;5041204;28;20397;-75
2023/08/18 05:44:14;;;;;;;116.65;111.45;;;;;;;24.52;45.42;101543.66;5044552;28;20061;-73
2023/08/18 05:46:40;;;;;;;120.45;114.85;;;;;;;24.51;45.40;101536.50;5043654;28;20037;-73
2023/08/18 05:49:07;;;;;;;118.50;113.03;;;;;;;24.51;45.80;101542.00;5045234;28;20033;-73
2023/08/18 05:51:32;;;;;;;115.95;110.65;;;;;;;24.50;45.53;101540.41;5045008;28;20455;-73
2023/08/18 05:53:58;;;;;;;117.65;112.35;;;;;;;24.50;45.43;101547.88;5046028;28;20484;-73
2023/08/18 05:56:23;;;;;;;117.10;111.75;;;;;;;24.49;45.33;101551.75;5040763;28;20064;-73
2023/08/18 05:58:48;;;;;;;118.22;112.82;;;;;;;24.48;45.59;101547.38;5047033;28;20039;-72
2023/08/18 06:01:17;;;;;;;115.68;110.43;;;;;;;24.47;45.60;101542.97;5047112;28;20028;-73
2023/08/18 06:03:43;;;;;;;114.78;109.40;;;;;;;24.46;45.74;101536.63;5041431;28;20066;-72
2023/08/18 06:06:08;;;;;;;119.88;114.68;;;;;;;24.46;45.43;101538.56;5047559;28;20044;-75
2023/08/18 06:08:33;;;;;;;119.13;113.68;;;;;;;24.45;45.61;101528.66;5044230;28;20106;-73
2023/08/18 06:10:59;;;;;;;114.93;109.78;;;;;;;24.44;45.71;101533.34;5036011;28;20136;-74
2023/08/18 06:13:25;;;;;;;116.32;111.20;;;;;;;24.44;45.34;101522.28;5031834;28;20045;-73
2023/08/18 06:15:54;;;;;;;115.40;110.28;;;;;;;24.43;45.78;101526.19;5039055;28;20029;-77
2023/08/18 06:18:23;;;;;;;120.32;114.68;;;;;;;24.42;45.76;101527.34;5042217;28;20083;-73
2023/08/18 06:20:50;;;;;;;119.75;114.13;;;;;;;24.42;45.49;101524.56;5045221;28;20064;-78
2023/08/18 06:23:15;;;;;;;116.88;111.63;;;;;;;24.42;45.65;101530.09;5044865;28;20524;-73
2023/08/18 06:25:41;;;;;;;119.13;113.60;;;;;;;24.41;45.84;101536.72;5037512;28;20120;-78
2023/08/18 06:28:06;;;;;;;117.07;111.70;;;;;;;24.40;45.70;101532.34;5046240;28;20130;-74
2023/08/18 06:30:32;;;;;;;116.35;110.85;;;;;;;24.39;45.38;101539.00;5040064;28;20544;-76
2023/08/18 06:32:57;;;;;;;119.10;113.70;;;;;;;24.38;46.05;101529.09;5044437;28;20032;-73
2023/08/18 06:35:23;;;;;;;118.65;113.28;;;;;;;24.38;45.64;101535.41;5033089;28;20039;-72
2023/08/18 06:37:48;;;;;;;118.80;112.57;;;;;;;24.37;45.87;101536.56;5043072;28;20125;-73
2023/08/18 06:40:14;;;;;;;118.00;112.57;;;;;;;24.37;45.81;101533.00;5040966;28;20029;-73
2023/08/18 06:42:39;;;;;;;117.68;112.32;;;;;;;24.37;45.96;101530.22;5036992;28;20041;-73
2023/08/18 06:45:05;;;;;;;118.80;113.20;;;;;;;24.36;45.75;101526.63;5043254;28;20047;-72
2023/08/18 06:47:30;;;;;;;121.40;115.22;;;;;;;24.36;45.69;101529.41;5042952;28;20136;-74
2023/08/18 06:49:56;;;;;;;116.93;111.57;;;;;;;24.35;46.01;101527.78;5048717;28;20079;-74
2023/08/18 06:52:21;;;;;;;121.43;115.55;;;;;;;24.34;46.10;101526.16;5043248;28;20036;-73
2023/08/18 06:54:49;;;;;;;118.60;113.03;;;;;;;24.33;46.26;101527.28;5044577;28;20045;-75
2023/08/18 06:57:15;;;;;;;120.05;114.75;;;;;;;24.34;46.12;101530.84;5046943;28;20036;-74
2023/08/18 06:59:40;;;;;;;118.28;112.55;;;;;;;24.33;45.54;101520.94;5046516;28;20064;-72
2023/08/18 07:02:06;;;;;;;122.07;116.45;;;;;;;24.33;45.87;101526.47;5045576;28;20120;-73
2023/08/18 07:04:31;;;;;;;122.93;116.50;;;;;;;24.33;45.92;101520.94;5047941;28;20091;-73
2023/08/18 07:06:57;;;;;;;120.03;114.07;;;;;;;24.32;45.93;101530.38;5045402;28;20033;-73
2023/08/18 07:09:22;;;;;;;117.70;112.32;;;;;;;24.31;45.77;101521.25;5043785;28;20119;-74
2023/08/18 07:11:47;;;;;;;120.20;114.05;;;;;;;24.31;45.57;101525.97;5041500;28;20705;-73
2023/08/18 07:14:13;;;;;;;119.15;113.55;;;;;;;24.32;45.75;101535.91;5044145;28;20049;-74
2023/08/18 07:16:38;;;;;;;118.82;113.18;;;;;;;24.32;45.96;101530.38;5036279;28;20118;-73
2023/08/18 07:19:04;;;;;;;118.43;112.63;;;;;;;24.31;46.32;101523.19;5046890;28;20496;-74
2023/08/18 07:21:29;;;;;;;117.88;112.18;;;;;;;24.31;45.75;101534.25;5036931;28;20470;-76
2023/08/18 07:23:55;;;;;;;118.65;112.97;;;;;;;24.31;45.81;101520.44;5047772;28;20465;-73
2023/08/18 07:26:20;;;;;;;114.70;109.35;;;;;;;24.31;46.28;101528.72;5053004;28;20032;-73
2023/08/18 07:28:45;;;;;;;121.90;115.90;;;;;;;24.30;45.85;101522.41;5042288;28;20025;-73
2023/08/18 07:31:11;;;;;;;116.80;111.35;;;;;;;24.31;45.99;101524.00;5045040;28;20044;-73
2023/08/18 07:33:36;;;;;;;118.95;113.25;;;;;;;24.31;45.94;101525.97;5044003;28;20112;-75
2023/08/18 07:36:02;;;;;;;116.45;110.95;;;;;;;24.31;46.08;101523.19;5033397;28;20133;-72
2023/08/18 07:38:29;;;;;;;117.85;112.10;;;;;;;24.31;45.81;101518.50;5040818;28;20025;-73
2023/08/18 07:40:55;;;;;;;117.20;111.40;;;;;;;24.32;46.01;101524.84;5043524;28;20060;-72
2023/08/18 07:43:20;;;;;;;115.82;110.43;;;;;;;24.32;46.32;101522.09;5037406;28;20052;-74
2023/08/18 07:45:46;;;;;;;118.43;112.60;;;;;;;24.31;46.39;101525.97;5034779;28;20044;-73
2023/08/18 07:48:12;;;;;;;119.43;113.43;;;;;;;24.31;46.40;101518.50;5047656;28;20036;-74
2023/08/18 07:50:40;;;;;;;121.53;115.38;;;;;;;24.31;46.50;101529.53;5035300;28;20041;-73
2023/08/18 07:53:05;;;;;;;117.05;110.70;;;;;;;24.29;46.57;101520.78;5045179;28;20041;-74
2023/08/18 07:55:31;;;;;;;113.90;108.50;;;;;;;24.28;46.78;101523.84;5047929;28;20039;-73
2023/08/18 07:57:56;;;;;;;119.30;113.30;;;;;;;24.26;47.12;101528.84;5042683;28;20033;-75
2023/08/18 08:00:22;;;;;;;115.95;110.40;;;;;;;24.26;47.35;101531.63;5034369;28;20063;-74
2023/08/18 08:02:48;;;;;;;120.25;114.28;;;;;;;24.26;46.96;101535.19;5040126;28;20388;-76
2023/08/18 08:05:19;;;;;;;118.80;112.88;;;;;;;24.25;47.31;101528.06;5039423;28;20061;-76
2023/08/18 08:07:45;;;;;;;120.80;114.50;;;;;;;24.25;47.19;101530.00;5037449;28;20112;-74
2023/08/18 08:10:12;;;;;;;118.45;112.53;;;;;;;24.23;47.54;101533.06;5045917;28;20432;-74
2023/08/18 08:12:38;;;;;;;119.55;113.35;;;;;;;24.23;47.91;101530.31;5047751;28;20061;-73
2023/08/18 08:15:05;;;;;;;119.28;112.63;;;;;;;24.23;48.37;101532.25;5047309;28;20045;-75
2023/08/18 08:17:32;;;;;;;118.32;112.78;;;;;;;24.23;48.24;101529.50;5045024;28;20047;-78
2023/08/18 08:19:59;;;;;;;118.57;112.50;;;;;;;24.21;48.22;101531.75;5042900;28;20040;-76
2023/08/18 08:22:24;;;;;;;120.45;114.53;;;;;;;24.19;48.14;101527.38;5049475;28;20025;-75
2023/08/18 08:24:50;;;;;;;120.30;114.40;;;;;;;24.21;48.66;101529.00;5042067;28;20125;-77
2023/08/18 08:27:18;;;;;;;120.82;114.68;;;;;;;24.21;48.89;101529.00;5034646;28;20037;-73
2023/08/18 08:29:43;;;;;;;122.00;115.75;;;;;;;24.20;48.75;101533.72;5047916;28;20043;-74
2023/08/18 08:32:09;;;;;;;121.13;115.15;;;;;;;24.19;48.84;101541.19;5037826;28;20046;-75
2023/08/18 08:34:39;;;;;;;120.07;113.57;;;;;;;24.20;48.87;101550.25;5040854;28;20045;-76
2023/08/18 08:37:04;;;;;;;118.13;112.10;;;;;;;24.18;48.67;101547.00;5038097;28;20045;-74
2023/08/18 08:39:29;;;;;;;120.45;114.05;;;;;;;24.18;48.86;101547.00;5040332;28;20045;-75
2023/08/18 08:41:55;;;;;;;120.43;114.07;;;;;;;24.18;49.14;101544.25;5053313;28;20083;-74
2023/08/18 08:44:20;;;;;;;120.45;114.00;;;;;;;24.17;49.11;101540.66;5039650;28;20061;-70
2023/08/18 08:46:46;;;;;;;120.47;114.13;;;;;;;24.21;49.16;101546.38;5041793;28;20037;-71
2023/08/18 08:49:14;;;;;;;120.32;114.35;;;;;;;24.25;48.70;101557.59;5045356;28;20076;-71
2023/08/18 08:51:41;;;;;;;116.90;110.97;;;;;;;24.27;48.92;101550.63;5033816;28;20504;-72
2023/08/18 08:54:10;;;;;;;117.80;112.03;;;;;;;24.31;48.75;101553.56;5032732;28;20025;-71
2023/08/18 08:56:37;;;;;;;120.30;113.95;;;;;;;24.33;48.81;101556.84;5045590;28;20029;-73
2023/08/18 08:59:03;;;;;;;118.00;112.15;;;;;;;24.35;48.33;101558.16;5032441;28;20126;-72
2023/08/18 09:01:29;;;;;;;118.15;112.05;;;;;;;24.35;48.39;101557.34;5041305;28;20457;-70
2023/08/18 09:03:56;;;;;;;120.55;114.40;;;;;;;24.37;48.48;101555.91;5050411;28;20373;-71
2023/08/18 09:06:21;;;;;;;116.85;110.97;;;;;;;24.39;48.58;101558.31;5051141;28;20386;-71
2023/08/18 09:08:48;;;;;;;118.60;112.75;;;;;;;24.40;48.59;101562.72;5041598;28;20046;-76
2023/08/18 09:11:14;;;;;;;118.32;112.15;;;;;;;24.40;48.48;101566.31;5042580;28;20045;-71
2023/08/18 09:13:41;;;;;;;117.95;112.05;;;;;;;24.41;48.51;101558.81;5043502;28;20038;-72
2023/08/18 09:16:07;;;;;;;117.67;111.73;;;;;;;24.41;48.40;101567.91;5047258;28;20128;-72
2023/08/18 09:18:33;;;;;;;117.22;111.47;;;;;;;24.43;48.38;101564.84;5042401;28;20024;-72
2023/08/18 09:21:04;;;;;;;118.80;112.45;;;;;;;24.44;48.45;101554.63;5049592;28;20067;-72
2023/08/18 09:23:29;;;;;;;116.25;110.55;;;;;;;24.46;48.16;101558.72;5041301;28;20029;-72
2023/08/18 09:25:58;;;;;;;121.30;115.18;;;;;;;24.46;48.24;101553.19;5038542;28;20436;-72
2023/08/18 09:28:24;;;;;;;;;;;;;;;24.40;48.48;101549.72;5050007;28;20033;-71
2023/08/18 09:30:49;;;;;;;114.35;108.68;;;;;;;24.44;48.34;101546.31;5047736;28;19912;-72
2023/08/18 09:33:15;;;;;;;119.20;113.25;;;;;;;24.46;48.50;101544.09;5032382;28;20040;-71
2023/08/18 09:35:41;;;;;;;117.25;111.57;;;;;;;24.47;48.26;101554.00;5037018;28;20036;-71
2023/08/18 09:38:11;;;;;;;118.00;112.35;;;;;;;24.47;48.20;101546.56;5039190;28;20025;-71
2023/08/18 09:40:36;;;;;;;117.95;112.18;;;;;;;24.49;48.34;101543.47;5040232;28;20481;-72
2023/08/18 09:43:01;;;;;;;118.65;113.05;;;;;;;24.50;48.09;101539.59;5046842;28;20029;-72
2023/08/18 09:45:27;;;;;;;117.88;111.85;;;;;;;24.51;48.07;101541.19;5031657;28;20092;-71
2023/08/18 09:47:57;;;;;;;117.93;111.97;;;;;;;24.52;48.35;101540.06;5037580;28;20094;-73
2023/08/18 09:50:27;;;;;;;118.03;112.38;;;;;;;24.53;48.16;101533.41;5036493;28;20083;-72
2023/08/18 09:52:57;;;;;;;122.05;115.95;;;;;;;24.53;48.15;101531.47;5043125;28;20112;-71
2023/08/18 09:55:33;;;;;;;121.40;115.18;;;;;;;24.54;48.06;101540.56;5050286;28;20103;-71
2023/08/18 09:58:27;;;;;;;124.25;117.43;;;;;;;24.54;48.29;101535.03;5039618;28;20033;-72
2023/08/18 10:00:57;;;;;;;117.07;111.35;;;;;;;24.55;48.25;101534.72;5032133;28;20087;-70
2023/08/18 10:03:26;;;;;;;120.88;114.47;;;;;;;24.55;48.37;101533.91;5036934;28;20048;-72
2023/08/18 10:05:53;;;;;;;120.18;114.20;;;;;;;24.56;47.95;101530.81;5038158;28;20040;-72
2023/08/18 10:08:21;;;;;;;127.65;120.65;;;;;;;24.58;48.54;101528.56;5042488;28;20056;-73
2023/08/18 10:10:47;;;;;;;;;;;;;;;24.54;48.51;101535.84;5047649;28;20112;-71
2023/08/18 10:13:13;;;;;;;118.72;112.47;;;;;;;24.59;48.33;101532.13;5033423;28;19991;-73
2023/08/18 10:15:39;;;;;;;118.95;112.70;;;;;;;24.59;48.16;101524.69;5032076;28;20064;-73
2023/08/18 10:18:09;;;;;;;123.40;116.82;;;;;;;24.60;48.10;101519.97;5036890;28;20044;-72
2023/08/18 10:20:35;;;;;;;120.13;114.22;;;;;;;24.62;48.24;101512.19;5036694;28;20115;-73
2023/08/18 10:23:04;;;;;;;127.15;120.25;;;;;;;24.65;48.25;101516.25;5038018;28;20498;-74
2023/08/18 10:25:31;;;;;;;123.72;117.38;;;;;;;24.65;48.53;101516.25;5039938;28;20033;-73
2023/08/18 10:27:57;;;;;;;123.15;116.95;;;;;;;24.67;48.23;101508.44;5043379;28;20037;-72
2023/08/18 10:30:24;;;;;;;123.28;116.97;;;;;;;24.67;48.45;101517.56;5044029;28;20098;-72
2023/08/18 10:32:55;;;;;;;121.80;115.63;;;;;;;24.69;48.14;101518.03;5044723;28;20055;-72
2023/08/18 10:35:26;;;;;;;123.88;117.22;;;;;;;24.71;48.03;101509.44;5041393;28;20025;-72
2023/08/18 10:37:58;;;;;;;124.55;118.25;;;;;;;24.72;48.03;101511.06;5035502;28;20470;-73
2023/08/18 10:40:30;;;;;;;124.35;117.65;;;;;;;24.72;48.41;101511.88;5035959;28;20029;-72
2023/08/18 10:43:05;;;;;;;124.43;117.55;;;;;;;24.73;48.09;101504.41;5043794;28;20041;-73
2023/08/18 10:45:31;;;;;;;121.13;115.15;;;;;;;24.75;48.27;101493.84;5035383;28;20111;-72
2023/08/18 10:48:01;;;;;;;125.15;118.10;;;;;;;24.77;48.20;101494.31;5048322;28;20129;-73
2023/08/18 10:50:29;;;;;;;121.60;115.57;;;;;;;24.77;48.06;101497.94;5050691;28;20477;-72
2023/08/18 10:52:55;;;;;;;127.43;120.55;;;;;;;24.79;48.22;101492.88;5050402;28;20131;-72